Time;durP1;ratioP1;P1;durP2;ratioP2;P2;SDS_P1;SDS_P2;PMS_P1;PMS_P2;Temp;Humidity;BMP_temperature;BMP_pressure;BME280_temperature;BME280_humidity;BME280_pressure;Samples;Min_cycle;Max_cycle;Signal;HPM_P1;HPM_P2
2022/11/28 00:00:55;;;;;;;8.70;6.93;;;4.90;99.90;;;;;;5055138;28;20193;-79
2022/11/28 00:03:21;;;;;;;7.13;6.23;;;4.80;99.90;;;;;;5054928;28;20274;-79
2022/11/28 00:05:47;;;;;;;7.97;6.53;;;4.70;99.90;;;;;;5055683;28;20216;-79
2022/11/28 00:08:13;;;;;;;8.30;6.50;;;4.80;99.90;;;;;;5055233;28;20182;-79
2022/11/28 00:10:40;;;;;;;11.60;7.47;;;4.70;99.90;;;;;;5054737;28;20186;-79
2022/11/28 00:13:05;;;;;;;7.93;6.50;;;4.60;99.90;;;;;;5069967;28;20293;-79
2022/11/28 00:15:31;;;;;;;9.47;6.97;;;4.60;99.90;;;;;;5054876;28;20213;-79
2022/11/28 00:17:57;;;;;;;8.70;6.30;;;4.70;99.90;;;;;;5055310;28;20797;-79
2022/11/28 00:20:22;;;;;;;8.77;6.87;;;4.60;99.90;;;;;;5054860;28;20245;-79
2022/11/28 00:22:48;;;;;;;6.83;6.13;;;4.70;99.90;;;;;;5054443;28;20229;-79
2022/11/28 00:25:14;;;;;;;7.63;6.57;;;4.80;99.90;;;;;;5055305;28;20221;-79
2022/11/28 00:27:40;;;;;;;9.90;6.47;;;4.70;99.90;;;;;;5054363;28;20181;-79
2022/11/28 00:30:06;;;;;;;9.27;6.67;;;4.80;99.90;;;;;;5055544;28;20178;-79
2022/11/28 00:32:31;;;;;;;6.83;6.00;;;4.80;99.90;;;;;;5054321;28;20270;-79
2022/11/28 00:34:57;;;;;;;8.77;6.30;;;4.70;99.90;;;;;;5055693;28;20228;-79
2022/11/28 00:37:23;;;;;;;8.60;6.60;;;4.70;99.90;;;;;;5054484;28;20252;-79
2022/11/28 00:39:48;;;;;;;8.13;6.63;;;4.80;99.90;;;;;;5054640;28;20224;-78
2022/11/28 00:42:15;;;;;;;8.10;6.40;;;4.80;99.90;;;;;;5054303;28;20217;-79
2022/11/28 00:44:41;;;;;;;8.23;6.37;;;4.70;99.90;;;;;;5055039;28;20252;-79
2022/11/28 00:47:06;;;;;;;10.47;6.90;;;4.80;99.90;;;;;;5055293;28;20648;-79
2022/11/28 00:49:32;;;;;;;7.43;6.37;;;4.80;99.90;;;;;;5053990;28;20182;-79
2022/11/28 00:51:57;;;;;;;8.23;6.33;;;4.70;99.90;;;;;;5054445;28;20194;-79
2022/11/28 00:54:23;;;;;;;9.57;6.70;;;4.70;99.90;;;;;;5055309;28;20194;-78
2022/11/28 00:56:49;;;;;;;7.73;6.43;;;5.00;99.90;;;;;;5055039;28;20217;-79
2022/11/28 00:59:14;;;;;;;7.33;6.37;;;4.80;99.90;;;;;;5053725;28;20253;-79
2022/11/28 01:01:44;;;;;;;7.20;6.00;;;4.70;99.90;;;;;;5054383;28;20190;-79
2022/11/28 01:04:13;;;;;;;7.47;6.33;;;4.70;99.90;;;;;;5053569;28;20218;-79
2022/11/28 01:06:47;;;;;;;7.40;5.83;;;4.80;99.90;;;;;;5054097;28;20241;-79
2022/11/28 01:09:17;;;;;;;6.97;5.77;;;4.80;99.90;;;;;;5053240;28;20212;-79
2022/11/28 01:11:43;;;;;;;8.10;6.00;;;4.80;99.90;;;;;;5054190;28;20239;-78
2022/11/28 01:14:10;;;;;;;7.20;6.03;;;4.80;99.90;;;;;;5054812;28;20212;-79
2022/11/28 01:16:36;;;;;;;7.17;5.73;;;4.70;99.90;;;;;;5053434;28;20228;-78
2022/11/28 01:19:02;;;;;;;7.00;6.27;;;4.70;99.90;;;;;;5054850;28;20840;-79
2022/11/28 01:21:27;;;;;;;7.63;6.50;;;4.70;99.90;;;;;;5053183;28;20216;-79
2022/11/28 01:23:53;;;;;;;8.00;5.93;;;4.70;99.90;;;;;;5054408;28;20230;-79
2022/11/28 01:26:24;;;;;;;8.40;6.47;;;4.70;99.90;;;;;;5052899;28;20658;-79
2022/11/28 01:28:50;;;;;;;7.27;6.00;;;4.70;99.90;;;;;;5053878;28;20205;-78
2022/11/28 01:31:18;;;;;;;9.30;6.30;;;4.70;99.90;;;;;;5053240;28;20194;-79
2022/11/28 01:33:44;;;;;;;8.07;5.97;;;4.70;99.90;;;;;;5053611;28;20225;-79
2022/11/28 01:36:11;;;;;;;7.87;6.00;;;4.70;99.90;;;;;;5052831;28;20246;-79
2022/11/28 01:38:37;;;;;;;7.57;6.30;;;4.70;99.90;;;;;;5053927;28;20269;-79
2022/11/28 01:41:03;;;;;;;6.93;6.00;;;4.70;99.90;;;;;;5054015;28;20295;-79
2022/11/28 01:43:29;;;;;;;6.73;5.70;;;4.70;99.90;;;;;;5053577;28;20210;-79
2022/11/28 01:45:55;;;;;;;7.23;6.10;;;5.20;99.90;;;;;;5047621;28;20229;-78
2022/11/28 01:48:28;;;;;;;8.07;6.40;;;4.70;99.90;;;;;;5045995;28;20182;-80
2022/11/28 01:50:59;;;;;;;9.50;6.60;;;4.50;99.90;;;;;;5045979;28;20182;-78
2022/11/28 01:53:29;;;;;;;7.80;6.17;;;4.60;99.90;;;;;;5045131;28;20210;-77
2022/11/28 01:56:00;;;;;;;7.97;6.27;;;4.70;99.90;;;;;;5045506;28;20190;-80
2022/11/28 01:58:28;;;;;;;8.40;6.23;;;4.70;99.90;;;;;;5045700;28;20197;-80
2022/11/28 02:00:54;;;;;;;7.47;5.87;;;4.80;99.90;;;;;;5045573;28;20866;-78
2022/11/28 02:03:43;;;;;;;8.23;6.27;;;4.70;99.90;;;;;;5045302;28;20218;-79
2022/11/28 02:06:11;;;;;;;8.53;6.67;;;5.10;99.90;;;;;;5044980;28;20182;-78
2022/11/28 02:08:37;;;;;;;8.10;6.30;;;4.60;99.90;;;;;;5045675;28;20190;-78
2022/11/28 02:11:40;;;;;;;7.63;6.47;;;4.60;99.90;;;;;;5045170;28;20260;-79
2022/11/28 02:14:15;;;;;;;8.03;5.90;;;4.60;99.90;;;;;;5044899;28;20255;-77
2022/11/28 02:16:52;;;;;;;7.80;6.43;;;4.60;99.90;;;;;;5045467;28;20189;-78
2022/11/28 02:20:02;;;;;;;7.80;6.50;;;4.60;99.90;;;;;;5045944;28;20671;-78
2022/11/28 02:22:45;;;;;;;8.30;7.07;;;4.60;99.90;;;;;;5043131;28;20636;-78
2022/11/28 02:25:35;;;;;;;8.80;7.30;;;4.60;99.90;;;;;;5034876;28;20206;-78
2022/11/28 02:28:25;;;;;;;9.37;6.87;;;4.60;99.90;;;;;;5045269;28;20188;-78
2022/11/28 02:31:22;;;;;;;7.43;6.40;;;4.60;99.90;;;;;;5045838;28;20181;-78
2022/11/28 02:33:59;;;;;;;8.50;6.60;;;4.60;99.90;;;;;;5043756;28;20206;-78
2022/11/28 02:36:49;;;;;;;9.50;7.20;;;4.50;99.90;;;;;;5044931;28;20178;-78
2022/11/28 02:39:49;;;;;;;9.87;6.77;;;4.50;99.90;;;;;;5045076;28;20176;-78
2022/11/28 02:42:23;;;;;;;9.47;7.70;;;4.50;99.90;;;;;;5044273;28;20209;-80
2022/11/28 02:44:57;;;;;;;10.03;7.63;;;4.40;99.90;;;;;;5045221;28;20280;-79
2022/11/28 02:47:31;;;;;;;8.33;6.70;;;4.40;99.90;;;;;;5040041;28;20184;-78
2022/11/28 02:50:11;;;;;;;11.80;7.60;;;4.50;99.90;;;;;;5043944;28;20217;-78
2022/11/28 02:52:51;;;;;;;10.27;8.17;;;4.50;99.90;;;;;;5043313;28;20201;-78
2022/11/28 02:55:16;;;;;;;8.43;7.17;;;4.60;99.90;;;;;;5034882;28;20284;-79
2022/11/28 02:57:51;;;;;;;9.77;7.07;;;4.60;99.90;;;;;;5044956;28;20277;-78
2022/11/28 03:00:26;;;;;;;9.30;7.23;;;4.60;99.90;;;;;;5044300;28;20219;-78
2022/11/28 03:03:24;;;;;;;11.17;7.67;;;4.60;99.90;;;;;;5044610;28;20663;-80
2022/11/28 03:06:04;;;;;;;10.27;7.03;;;4.60;99.90;;;;;;5043398;28;20236;-78
2022/11/28 03:08:58;;;;;;;8.80;6.97;;;4.60;99.90;;;;;;5049987;28;20186;-79
2022/11/28 03:11:38;;;;;;;9.57;6.97;;;4.60;99.90;;;;;;5049512;28;20190;-77
2022/11/28 03:14:28;;;;;;;10.17;7.50;;;4.60;99.90;;;;;;5049513;28;20206;-78
2022/11/28 03:17:05;;;;;;;9.60;7.33;;;4.60;99.90;;;;;;5035616;28;20188;-79
2022/11/28 03:19:36;;;;;;;10.20;7.23;;;4.60;99.90;;;;;;5050020;28;20284;-77
2022/11/28 03:22:14;;;;;;;11.53;7.30;;;4.60;99.90;;;;;;5049781;28;21090;-78
2022/11/28 03:24:50;;;;;;;10.37;8.00;;;4.60;99.90;;;;;;5048322;28;20312;-78
2022/11/28 03:27:38;;;;;;;9.83;7.13;;;4.60;99.90;;;;;;5049932;28;20186;-79
2022/11/28 03:30:12;;;;;;;10.50;7.67;;;4.60;99.90;;;;;;5050194;28;20237;-78
2022/11/28 03:32:39;;;;;;;9.13;7.30;;;4.60;99.90;;;;;;5049886;28;20216;-79
2022/11/28 03:35:18;;;;;;;9.33;7.50;;;4.60;99.90;;;;;;5048665;28;20190;-79
2022/11/28 03:37:51;;;;;;;9.90;7.50;;;4.60;99.90;;;;;;5050567;28;20753;-78
2022/11/28 03:40:22;;;;;;;10.70;8.23;;;4.60;99.90;;;;;;5048868;28;20221;-79
2022/11/28 03:42:56;;;;;;;10.93;8.17;;;4.60;99.90;;;;;;5049797;28;20210;-78
2022/11/28 03:45:30;;;;;;;11.03;8.30;;;4.50;99.90;;;;;;5049916;28;20252;-80
2022/11/28 03:48:05;;;;;;;9.30;7.47;;;4.40;99.90;;;;;;5050240;28;20182;-78
2022/11/28 03:50:43;;;;;;;11.17;8.50;;;4.50;99.90;;;;;;5049129;28;20327;-80
2022/11/28 03:53:15;;;;;;;9.83;8.60;;;4.50;99.90;;;;;;5049663;28;20198;-78
2022/11/28 03:56:03;;;;;;;10.93;8.70;;;4.40;99.90;;;;;;5050704;28;20652;-79
2022/11/28 03:58:46;;;;;;;12.00;8.97;;;4.30;99.90;;;;;;5050174;28;20232;-78
2022/11/28 04:01:46;;;;;;;11.00;8.47;;;4.30;99.90;;;;;;5050159;28;20239;-78
2022/11/28 04:04:49;;;;;;;11.90;8.87;;;4.40;99.90;;;;;;5047736;28;20218;-78
2022/11/28 04:07:40;;;;;;;11.73;8.73;;;4.40;99.90;;;;;;5050121;28;20186;-80
2022/11/28 04:10:20;;;;;;;12.97;8.97;;;4.30;99.90;;;;;;5050979;28;20182;-80
2022/11/28 04:12:53;;;;;;;11.80;8.57;;;4.30;99.90;;;;;;5049885;28;20281;-79
2022/11/28 04:15:29;;;;;;;11.53;9.13;;;4.30;99.90;;;;;;5050805;28;20190;-80
2022/11/28 04:18:18;;;;;;;10.70;8.30;;;4.20;99.90;;;;;;5050513;28;20444;-78
2022/11/28 04:20:52;;;;;;;11.43;8.77;;;4.20;99.90;;;;;;5039728;28;20536;-78
2022/11/28 04:23:20;;;;;;;11.53;8.47;;;4.20;99.90;;;;;;5050163;28;20213;-79
2022/11/28 04:25:56;;;;;;;12.00;9.00;;;4.20;99.90;;;;;;5051818;28;20212;-78
2022/11/28 04:28:26;;;;;;;11.53;8.67;;;4.50;99.90;;;;;;5051209;28;20623;-79
2022/11/28 04:30:55;;;;;;;11.30;8.67;;;4.20;99.90;;;;;;5051104;28;20182;-79
2022/11/28 04:33:23;;;;;;;13.70;9.07;;;4.20;99.90;;;;;;5051364;28;20206;-80
2022/11/28 04:35:51;;;;;;;10.70;8.93;;;4.20;99.90;;;;;;5054986;28;20221;-80
2022/11/28 04:38:19;;;;;;;10.57;8.77;;;4.20;99.90;;;;;;5048891;28;20186;-78
2022/11/28 04:41:15;;;;;;;11.07;8.60;;;4.20;99.90;;;;;;5048181;28;20212;-78
2022/11/28 04:43:50;;;;;;;12.60;9.10;;;4.20;99.90;;;;;;5047683;28;20214;-79
2022/11/28 04:46:26;;;;;;;10.90;7.93;;;4.20;99.90;;;;;;5047559;28;20255;-78
2022/11/28 04:48:52;;;;;;;10.80;8.27;;;4.20;99.90;;;;;;5047760;28;20189;-79
2022/11/28 04:51:28;;;;;;;12.70;9.03;;;4.20;99.90;;;;;;5046561;28;20190;-79
2022/11/28 04:54:24;;;;;;;11.40;8.23;;;4.20;99.90;;;;;;5046331;28;20586;-77
2022/11/28 04:57:00;;;;;;;10.77;7.90;;;4.20;99.90;;;;;;5054602;28;20194;-78
2022/11/28 04:59:27;;;;;;;11.93;8.27;;;4.20;99.90;;;;;;5046049;28;20194;-78
2022/11/28 05:01:53;;;;;;;11.47;8.40;;;4.10;99.90;;;;;;5046391;28;20190;-79
2022/11/28 05:04:19;;;;;;;10.50;8.20;;;4.30;99.90;;;;;;5047774;28;20691;-78
2022/11/28 05:06:45;;;;;;;9.43;7.47;;;4.30;99.90;;;;;;5047089;28;20188;-78
2022/11/28 05:09:11;;;;;;;10.00;7.67;;;4.30;99.90;;;;;;5047618;28;20265;-78
2022/11/28 05:11:37;;;;;;;9.13;7.53;;;4.30;99.90;;;;;;5046778;28;20230;-78
2022/11/28 05:14:03;;;;;;;11.80;8.27;;;4.30;99.90;;;;;;5045903;28;20232;-78
2022/11/28 05:16:28;;;;;;;11.10;8.03;;;4.40;99.90;;;;;;5047021;28;20190;-79
2022/11/28 05:18:54;;;;;;;10.33;7.37;;;4.30;99.90;;;;;;5046865;28;20190;-78
2022/11/28 05:21:19;;;;;;;8.83;6.80;;;4.30;99.90;;;;;;5046123;28;20229;-78
2022/11/28 05:23:45;;;;;;;12.17;7.83;;;4.30;99.90;;;;;;5045835;28;20243;-79
2022/11/28 05:26:17;;;;;;;9.23;7.37;;;4.30;99.90;;;;;;5045127;28;20190;-78
2022/11/28 05:28:48;;;;;;;10.03;7.90;;;4.30;99.90;;;;;;5045432;28;20255;-78
2022/11/28 05:31:16;;;;;;;9.73;8.07;;;4.20;99.90;;;;;;5043707;28;20259;-77
2022/11/28 05:33:41;;;;;;;9.93;7.67;;;4.30;99.90;;;;;;5046794;28;20197;-78
2022/11/28 05:36:12;;;;;;;9.77;7.33;;;4.50;99.90;;;;;;5051364;28;20237;-77
2022/11/28 05:38:38;;;;;;;10.27;7.67;;;4.30;99.90;;;;;;5045784;28;20190;-79
2022/11/28 05:41:04;;;;;;;10.10;7.60;;;4.20;99.90;;;;;;5045391;28;20193;-77
2022/11/28 05:43:30;;;;;;;9.40;7.20;;;4.30;99.90;;;;;;5045610;28;20229;-79
2022/11/28 05:45:56;;;;;;;9.07;7.43;;;4.30;99.90;;;;;;5046533;28;20222;-79
2022/11/28 05:48:22;;;;;;;10.13;7.70;;;4.30;99.90;;;;;;5044419;28;20193;-79
2022/11/28 05:50:51;;;;;;;10.27;7.30;;;4.30;99.90;;;;;;5044665;28;20194;-77
2022/11/28 05:53:18;;;;;;;10.27;7.83;;;4.30;99.90;;;;;;5045019;28;20221;-78
2022/11/28 05:55:45;;;;;;;8.87;7.43;;;4.30;99.90;;;;;;5045971;28;20272;-78
2022/11/28 05:58:11;;;;;;;10.90;8.30;;;4.30;99.90;;;;;;5045700;28;20205;-77
2022/11/28 06:00:36;;;;;;;9.20;8.00;;;4.30;99.90;;;;;;5039601;28;20186;-78
2022/11/28 06:03:03;;;;;;;11.37;8.37;;;4.20;99.90;;;;;;5046662;28;20217;-79
2022/11/28 06:05:29;;;;;;;9.73;7.93;;;4.20;99.90;;;;;;5046590;28;20308;-79
2022/11/28 06:07:54;;;;;;;11.83;8.13;;;4.20;99.90;;;;;;5045693;28;20281;-79
2022/11/28 06:10:21;;;;;;;9.80;8.03;;;4.20;99.90;;;;;;5045424;28;20186;-77
2022/11/28 06:12:47;;;;;;;10.13;7.90;;;4.20;99.90;;;;;;5043744;28;20217;-77
2022/11/28 06:15:13;;;;;;;10.33;7.77;;;4.20;99.90;;;;;;5047085;28;20667;-79
2022/11/28 06:17:39;;;;;;;10.47;8.77;;;4.20;99.90;;;;;;5038133;28;20194;-78
2022/11/28 06:20:06;;;;;;;9.67;7.43;;;4.10;99.90;;;;;;5046557;28;20190;-78
2022/11/28 06:22:32;;;;;;;11.60;7.77;;;4.20;99.90;;;;;;5045252;28;20263;-78
2022/11/28 06:24:58;;;;;;;10.00;8.00;;;4.20;99.90;;;;;;5044864;28;20228;-77
2022/11/28 06:27:24;;;;;;;10.77;7.97;;;4.20;99.90;;;;;;5039145;28;20182;-79
2022/11/28 06:29:49;;;;;;;9.47;7.43;;;4.20;99.90;;;;;;5046058;28;20281;-79
2022/11/28 06:32:15;;;;;;;10.83;7.40;;;5.20;99.90;;;;;;5044560;28;20208;-78
2022/11/28 06:34:40;;;;;;;10.83;7.87;;;4.20;99.90;;;;;;5046157;28;20194;-77
2022/11/28 06:37:06;;;;;;;11.33;8.20;;;4.20;99.90;;;;;;5046734;28;20269;-79
2022/11/28 06:39:32;;;;;;;8.53;7.40;;;4.20;99.90;;;;;;5046450;28;20219;-78
2022/11/28 06:41:57;;;;;;;10.33;7.87;;;4.20;99.90;;;;;;5047732;28;20352;-80
2022/11/28 06:44:23;;;;;;;10.93;8.27;;;4.20;99.90;;;;;;5049454;28;20210;-80
2022/11/28 06:46:48;;;;;;;9.97;7.50;;;4.10;99.90;;;;;;5050591;28;20244;-80
2022/11/28 06:49:14;;;;;;;10.63;7.97;;;4.10;99.90;;;;;;5049272;28;20190;-79
2022/11/28 06:51:40;;;;;;;11.53;8.67;;;4.10;99.90;;;;;;5051135;28;20185;-79
2022/11/28 06:54:07;;;;;;;11.60;8.10;;;4.00;99.90;;;;;;5050283;28;20206;-79
2022/11/28 06:56:33;;;;;;;11.10;8.47;;;4.10;99.90;;;;;;5050188;28;20253;-79
2022/11/28 06:58:59;;;;;;;10.83;8.40;;;4.10;99.90;;;;;;5051826;28;20252;-78
2022/11/28 07:01:28;;;;;;;10.53;7.93;;;4.10;99.90;;;;;;5050560;28;20566;-80
2022/11/28 07:03:54;;;;;;;12.33;9.07;;;4.10;99.90;;;;;;5051196;28;20212;-79
2022/11/28 07:06:21;;;;;;;10.87;8.20;;;4.10;99.90;;;;;;5049681;28;20186;-81
2022/11/28 07:08:47;;;;;;;10.00;7.87;;;4.10;99.90;;;;;;5050637;28;20261;-79
2022/11/28 07:11:24;;;;;;;10.30;8.00;;;4.10;99.90;;;;;;5048554;28;20189;-77
2022/11/28 07:13:51;;;;;;;10.80;8.27;;;4.40;99.90;;;;;;5045651;28;20205;-78
2022/11/28 07:16:23;;;;;;;10.27;8.30;;;4.20;99.90;;;;;;5050457;28;20185;-80
2022/11/28 07:18:49;;;;;;;11.47;8.27;;;4.20;99.90;;;;;;5050928;28;20269;-80
2022/11/28 07:21:15;;;;;;;10.30;8.27;;;4.20;99.90;;;;;;5049246;28;20254;-78
2022/11/28 07:23:42;;;;;;;12.20;8.93;;;4.10;99.90;;;;;;5050906;28;20560;-80
2022/11/28 07:26:09;;;;;;;9.10;7.47;;;4.10;99.90;;;;;;5051395;28;20668;-80
2022/11/28 07:28:35;;;;;;;9.93;8.17;;;4.20;99.90;;;;;;5052028;28;20201;-78
2022/11/28 07:31:07;;;;;;;13.50;8.97;;;4.10;99.90;;;;;;5054247;28;20190;-79
2022/11/28 07:33:38;;;;;;;10.83;9.50;;;4.10;99.90;;;;;;5049429;28;20266;-77
2022/11/28 07:36:06;;;;;;;11.67;9.17;;;4.10;99.90;;;;;;5047577;28;20190;-79
2022/11/28 07:38:32;;;;;;;11.37;9.00;;;4.10;99.90;;;;;;5045914;28;20198;-80
2022/11/28 07:41:03;;;;;;;9.50;8.47;;;4.20;99.90;;;;;;5049380;28;20221;-78
2022/11/28 07:43:29;;;;;;;10.70;8.47;;;4.30;99.90;;;;;;5046758;28;20222;-77
2022/11/28 07:45:54;;;;;;;11.33;8.40;;;4.40;99.90;;;;;;5048062;28;20228;-76
2022/11/28 07:48:21;;;;;;;11.20;9.27;;;4.40;99.90;;;;;;5041290;28;20198;-78
2022/11/28 07:50:46;;;;;;;10.07;8.37;;;4.40;99.90;;;;;;5044331;28;20183;-77
2022/11/28 07:53:12;;;;;;;11.23;9.00;;;4.40;99.90;;;;;;5044523;28;20632;-78
2022/11/28 07:55:38;;;;;;;11.63;8.07;;;4.30;99.90;;;;;;5047066;28;20186;-77
2022/11/28 07:58:04;;;;;;;12.80;9.17;;;4.30;99.90;;;;;;5046061;28;20730;-76
2022/11/28 08:00:30;;;;;;;11.53;8.93;;;4.40;99.90;;;;;;5044123;28;20189;-77
2022/11/28 08:02:56;;;;;;;10.60;8.23;;;4.40;99.90;;;;;;5038381;28;20280;-76
2022/11/28 08:05:21;;;;;;;10.60;8.93;;;4.40;99.90;;;;;;5047129;28;20217;-78
2022/11/28 08:07:49;;;;;;;9.70;8.47;;;4.40;99.90;;;;;;5047318;28;20182;-78
2022/11/28 08:10:15;;;;;;;11.20;9.13;;;4.30;99.90;;;;;;5041539;28;20178;-78
2022/11/28 08:12:40;;;;;;;12.07;9.17;;;4.30;99.90;;;;;;5039763;28;21296;-77
2022/11/28 08:15:06;;;;;;;10.93;8.67;;;4.40;99.90;;;;;;5046151;28;20186;-77
2022/11/28 08:17:33;;;;;;;10.10;8.53;;;4.40;99.90;;;;;;5045514;28;20554;-77
2022/11/28 08:19:59;;;;;;;11.10;8.90;;;4.50;99.90;;;;;;5046746;28;20209;-78
2022/11/28 08:22:25;;;;;;;11.97;8.53;;;4.50;99.90;;;;;;5046591;28;20611;-76
2022/11/28 08:24:50;;;;;;;10.37;8.63;;;4.50;99.90;;;;;;5046909;28;20597;-78
2022/11/28 08:27:16;;;;;;;11.73;8.93;;;4.50;99.90;;;;;;5048546;28;20186;-77
2022/11/28 08:29:42;;;;;;;9.57;8.37;;;4.50;99.90;;;;;;5046960;28;20286;-76
2022/11/28 08:32:07;;;;;;;10.00;8.20;;;4.50;99.90;;;;;;5046863;28;20185;-78
2022/11/28 08:34:33;;;;;;;12.03;10.10;;;4.80;99.90;;;;;;5047703;28;20201;-78
2022/11/28 08:36:59;;;;;;;37.10;25.47;;;4.80;99.90;;;;;;5046118;28;20201;-77
2022/11/28 08:39:24;;;;;;;19.87;15.27;;;4.50;99.90;;;;;;5047168;28;20206;-76
2022/11/28 08:41:50;;;;;;;24.63;20.30;;;4.40;99.90;;;;;;5046060;28;20186;-76
2022/11/28 08:44:16;;;;;;;36.53;28.67;;;4.50;99.90;;;;;;5045677;28;20206;-77
2022/11/28 08:46:41;;;;;;;38.03;28.37;;;4.50;99.90;;;;;;5042401;28;20636;-77
2022/11/28 08:49:07;;;;;;;34.57;26.27;;;4.50;99.90;;;;;;5048354;28;20204;-77
2022/11/28 08:51:33;;;;;;;41.30;28.40;;;4.60;99.90;;;;;;5048105;28;20214;-76
2022/11/28 08:53:58;;;;;;;60.87;46.37;;;4.60;99.90;;;;;;5048192;28;20305;-78
2022/11/28 08:56:24;;;;;;;53.47;39.80;;;4.70;99.90;;;;;;5050308;28;20196;-76
2022/11/28 08:58:50;;;;;;;27.70;21.20;;;4.70;99.90;;;;;;5043297;28;20228;-76
2022/11/28 09:01:25;;;;;;;41.87;33.70;;;4.70;99.90;;;;;;5048255;28;20197;-77
2022/11/28 09:03:52;;;;;;;22.87;19.53;;;4.70;99.90;;;;;;5045974;28;20214;-77
2022/11/28 09:06:19;;;;;;;29.37;24.53;;;4.80;99.90;;;;;;5046233;28;20691;-76
2022/11/28 09:08:46;;;;;;;20.27;16.53;;;4.80;99.90;;;;;;5048004;28;20207;-79
2022/11/28 09:11:14;;;;;;;16.50;14.63;;;4.90;99.90;;;;;;5048907;28;20341;-78
2022/11/28 09:13:39;;;;;;;11.73;10.00;;;4.90;99.90;;;;;;5046432;28;20369;-78
2022/11/28 09:16:06;;;;;;;14.07;11.97;;;4.80;99.90;;;;;;5045979;28;20691;-77
2022/11/28 09:18:31;;;;;;;18.53;15.80;;;4.90;99.90;;;;;;5045616;28;20208;-78
2022/11/28 09:21:08;;;;;;;17.03;14.27;;;5.60;99.90;;;;;;5046506;28;20186;-77
2022/11/28 09:23:34;;;;;;;15.13;13.13;;;4.90;99.90;;;;;;5046976;28;20217;-78
2022/11/28 09:26:00;;;;;;;14.10;10.87;;;4.80;99.90;;;;;;5044968;28;20209;-78
2022/11/28 09:28:27;;;;;;;15.00;12.50;;;4.90;99.90;;;;;;5047317;28;20189;-77
2022/11/28 09:31:00;;;;;;;13.83;11.50;;;4.90;99.90;;;;;;5045236;28;20193;-76
2022/11/28 09:33:26;;;;;;;12.80;9.37;;;4.90;99.90;;;;;;5047604;28;20216;-77
2022/11/28 09:35:54;;;;;;;14.83;13.23;;;5.00;99.90;;;;;;5047553;28;20186;-78
2022/11/28 09:38:20;;;;;;;14.37;10.33;;;5.10;98.20;;;;;;5045914;28;20190;-77
2022/11/28 09:40:47;;;;;;;12.80;10.60;;;5.10;93.90;;;;;;5046442;28;20214;-78
2022/11/28 09:43:36;;;;;;;10.80;8.57;;;5.00;92.80;;;;;;5047408;28;20202;-75
2022/11/28 09:46:08;;;;;;;13.93;9.57;;;5.10;92.20;;;;;;5046954;28;20293;-78
2022/11/28 09:48:37;;;;;;;14.20;10.07;;;5.50;92.00;;;;;;5047332;28;20190;-76
2022/11/28 09:51:41;;;;;;;10.53;9.40;;;5.40;91.90;;;;;;5047615;28;20714;-75
2022/11/28 09:54:19;;;;;;;11.43;9.40;;;5.20;90.70;;;;;;5045900;28;20198;-77
2022/11/28 09:56:49;;;;;;;37.30;29.97;;;5.20;92.80;;;;;;5047710;28;20197;-78
2022/11/28 09:59:26;;;;;;;25.17;19.87;;;5.20;92.60;;;;;;5047124;28;20182;-81
2022/11/28 10:01:51;;;;;;;18.30;15.53;;;5.30;88.30;;;;;;5047082;28;20648;-78
2022/11/28 10:04:29;;;;;;;39.20;33.43;;;5.30;91.40;;;;;;5039556;28;20214;-81
2022/11/28 10:07:20;;;;;;;11.77;10.57;;;5.30;84.30;;;;;;5046983;28;20256;-78
2022/11/28 10:10:19;;;;;;;14.87;13.27;;;5.30;79.60;;;;;;5031094;28;20182;-78
2022/11/28 10:13:22;;;;;;;12.50;11.20;;;5.40;79.80;;;;;;5047653;28;20220;-78
2022/11/28 10:16:07;;;;;;;12.87;10.20;;;5.40;75.70;;;;;;5047210;28;20868;-77
2022/11/28 10:18:33;;;;;;;15.50;12.97;;;5.50;71.60;;;;;;5040460;28;20178;-78
2022/11/28 10:21:07;;;;;;;19.13;15.87;;;5.50;66.80;;;;;;5041409;28;20347;-78
2022/11/28 10:23:42;;;;;;;17.27;14.33;;;5.50;63.90;;;;;;5044850;28;20264;-76
2022/11/28 10:26:26;;;;;;;14.90;12.60;;;5.50;66.40;;;;;;5044915;28;20564;-77
2022/11/28 10:28:54;;;;;;;19.83;15.67;;;5.60;67.90;;;;;;5046655;28;20186;-77
2022/11/28 10:31:29;;;;;;;15.67;12.50;;;5.60;62.90;;;;;;5044748;28;20194;-76
2022/11/28 10:34:04;;;;;;;16.87;13.43;;;5.60;59.00;;;;;;5044324;28;20205;-77
2022/11/28 10:36:54;;;;;;;13.70;10.77;;;5.70;58.10;;;;;;5043903;28;20684;-76
2022/11/28 10:39:20;;;;;;;17.67;12.93;;;5.60;54.40;;;;;;5041521;28;20197;-77
2022/11/28 10:42:10;;;;;;;13.70;11.23;;;5.60;54.40;;;;;;5042790;28;20186;-77
2022/11/28 10:44:54;;;;;;;18.27;14.00;;;5.70;54.10;;;;;;5041350;28;20384;-77
2022/11/28 10:47:23;;;;;;;14.43;12.30;;;5.70;54.00;;;;;;5035753;28;20192;-78
2022/11/28 10:50:00;;;;;;;16.00;12.97;;;5.80;54.50;;;;;;5042982;28;20193;-79
2022/11/28 10:52:55;;;;;;;11.33;9.93;;;5.80;47.30;;;;;;5042023;28;20268;-80
2022/11/28 10:55:42;;;;;;;12.73;10.37;;;5.70;43.50;;;;;;5043367;28;20194;-74
2022/11/28 10:58:24;;;;;;;12.67;10.83;;;5.90;38.50;;;;;;5048584;28;20274;-77
2022/11/28 11:00:56;;;;;;;15.67;11.03;;;5.90;39.90;;;;;;5047808;28;20246;-77
2022/11/28 11:03:27;;;;;;;13.47;11.50;;;5.90;39.80;;;;;;5046990;28;20206;-78
2022/11/28 11:05:53;;;;;;;13.03;11.33;;;6.00;36.10;;;;;;5042600;28;20206;-79
2022/11/28 11:08:20;;;;;;;15.10;12.40;;;6.00;34.00;;;;;;5045639;28;20298;-79
2022/11/28 11:10:50;;;;;;;17.07;15.27;;;6.00;35.20;;;;;;5044089;28;20186;-77
2022/11/28 11:13:20;;;;;;;18.67;16.97;;;5.70;37.10;;;;;;5052392;28;20198;-78
2022/11/28 11:15:50;;;;;;;17.37;15.53;;;5.70;38.20;;;;;;5049490;28;20216;-78
2022/11/28 11:18:23;;;;;;;18.23;14.57;;;6.30;40.30;;;;;;5050767;28;20614;-79
2022/11/28 11:20:49;;;;;;;19.50;17.50;;;5.80;31.60;;;;;;5045661;28;20202;-76
2022/11/28 11:23:20;;;;;;;15.20;13.60;;;5.70;43.90;;;;;;5052336;28;20320;-77
2022/11/28 11:25:53;;;;;;;14.20;11.30;;;5.80;32.20;;;;;;5048729;28;20249;-77
2022/11/28 11:28:31;;;;;;;13.73;11.70;;;5.80;36.10;;;;;;5053744;28;20256;-76
2022/11/28 11:31:13;;;;;;;14.60;13.10;;;5.90;36.50;;;;;;5057326;28;20659;-76
2022/11/28 11:33:38;;;;;;;12.17;10.57;;;5.90;32.60;;;;;;5057434;28;20481;-77
2022/11/28 11:36:20;;;;;;;16.63;14.80;;;5.90;43.10;;;;;;5057551;28;20671;-78
2022/11/28 11:38:45;;;;;;;15.63;14.03;;;6.00;30.20;;;;;;5058535;28;20273;-77
2022/11/28 11:41:28;;;;;;;12.43;9.57;;;6.00;30.30;;;;;;5057631;28;20221;-78
2022/11/28 11:43:54;;;;;;;10.97;9.43;;;6.00;34.00;;;;;;5057258;28;20210;-77
2022/11/28 11:46:20;;;;;;;11.53;9.10;;;6.00;33.40;;;;;;5058339;28;20217;-78
2022/11/28 11:48:49;;;;;;;15.30;9.80;;;6.00;30.90;;;;;;5055789;28;20604;-76
2022/11/28 11:51:30;;;;;;;11.13;8.63;;;6.00;32.00;;;;;;5056191;28;20290;-77
2022/11/28 11:54:21;;;;;;;13.37;9.07;;;6.00;29.80;;;;;;5056312;28;20225;-76
2022/11/28 11:56:49;;;;;;;10.50;8.07;;;6.00;23.20;;;;;;5054369;28;20251;-76
2022/11/28 11:59:22;;;;;;;11.63;9.47;;;6.00;26.30;;;;;;5056288;28;20756;-76
2022/11/28 12:01:54;;;;;;;13.13;10.70;;;6.10;28.70;;;;;;5053224;28;20342;-78
2022/11/28 12:04:30;;;;;;;11.57;10.30;;;6.00;31.30;;;;;;5055355;28;20268;-76
2022/11/28 12:06:59;;;;;;;12.63;9.23;;;6.00;31.60;;;;;;5050908;28;20198;-78
2022/11/28 12:09:42;;;;;;;11.87;9.80;;;6.00;28.80;;;;;;5056039;28;20190;-76
2022/11/28 12:12:29;;;;;;;10.60;8.73;;;6.00;25.10;;;;;;5052694;28;20178;-76
2022/11/28 12:14:55;;;;;;;13.33;11.07;;;6.10;23.70;;;;;;5054628;28;20189;-77
2022/11/28 12:17:41;;;;;;;11.60;9.43;;;6.10;23.10;;;;;;5053122;28;20193;-76
2022/11/28 12:20:31;;;;;;;10.77;8.50;;;6.10;21.10;;;;;;5055750;28;20190;-75
2022/11/28 12:23:08;;;;;;;9.37;8.07;;;6.10;25.60;;;;;;5054421;28;20202;-77
2022/11/28 12:25:45;;;;;;;9.43;7.80;;;6.10;22.60;;;;;;5054286;28;20206;-76
2022/11/28 12:28:17;;;;;;;10.87;8.30;;;6.00;22.90;;;;;;5055641;28;20272;-76
2022/11/28 12:31:18;;;;;;;9.90;8.07;;;6.30;23.80;;;;;;5054253;28;20201;-78
2022/11/28 12:34:18;;;;;;;12.97;9.67;;;6.00;26.40;;;;;;5049748;28;20281;-77
2022/11/28 12:37:23;;;;;;;13.87;10.77;;;6.10;26.70;;;;;;5054936;28;20205;-76
2022/11/28 12:40:18;;;;;;;16.03;13.07;;;6.00;28.50;;;;;;5053464;28;20224;-78
2022/11/28 12:42:43;;;;;;;16.67;14.87;;;6.00;24.70;;;;;;5056046;28;20477;-76
2022/11/28 12:45:21;;;;;;;30.37;23.40;;;6.10;22.90;;;;;;5055670;28;20533;-79
2022/11/28 12:47:49;;;;;;;27.13;22.70;;;6.10;20.40;;;;;;5055884;28;20193;-77
2022/11/28 12:50:24;;;;;;;24.07;21.07;;;6.10;20.40;;;;;;5055484;28;20236;-77
2022/11/28 12:53:13;;;;;;;17.60;15.70;;;6.00;25.20;;;;;;5054360;28;20232;-78
2022/11/28 12:55:50;;;;;;;21.93;18.20;;;6.10;25.90;;;;;;5055447;28;20219;-77
2022/11/28 12:58:32;;;;;;;17.17;14.30;;;6.00;25.20;;;;;;5055280;28;20353;-78
2022/11/28 13:01:55;;;;;;;17.80;14.87;;;5.90;30.00;;;;;;5047440;28;21003;-78
2022/11/28 13:04:49;;;;;;;21.27;18.57;;;5.90;29.60;;;;;;5046728;28;20218;-78
2022/11/28 13:07:45;;;;;;;15.10;12.13;;;5.90;31.60;;;;;;5048462;28;20248;-76
2022/11/28 13:10:34;;;;;;;18.67;14.77;;;5.90;35.30;;;;;;5043962;28;20769;-77
2022/11/28 13:13:21;;;;;;;18.17;13.90;;;6.00;38.50;;;;;;5039580;28;20206;-79
2022/11/28 13:16:18;;;;;;;15.03;11.93;;;5.90;44.40;;;;;;5038888;28;20198;-79